sensor_id;sensor_type;location;lat;lon;timestamp;P1;durP1;ratioP1;P2;durP2;ratioP2
13834;SDS011;6988;52.614;13.500;2022-12-10T00:03:47;29.10;;;20.37;;
13834;SDS011;6988;52.614;13.500;2022-12-10T00:08:39;27.77;;;19.97;;
13834;SDS011;6988;52.614;13.500;2022-12-10T00:13:33;28.47;;;20.20;;
13834;SDS011;6988;52.614;13.500;2022-12-10T00:18:26;27.27;;;20.20;;
13834;SDS011;6988;52.614;13.500;2022-12-10T00:23:19;28.87;;;19.60;;
13834;SDS011;6988;52.614;13.500;2022-12-10T00:28:11;27.13;;;18.87;;
13834;SDS011;6988;52.614;13.500;2022-12-10T00:33:05;26.40;;;18.87;;
13834;SDS011;6988;52.614;13.500;2022-12-10T00:38:03;27.53;;;18.53;;
13834;SDS011;6988;52.614;13.500;2022-12-10T00:42:56;26.60;;;19.67;;
13834;SDS011;6988;52.614;13.500;2022-12-10T00:47:48;26.07;;;19.00;;
13834;SDS011;6988;52.614;13.500;2022-12-10T00:52:40;24.60;;;18.17;;
13834;SDS011;6988;52.614;13.500;2022-12-10T00:57:32;27.13;;;19.77;;
13834;SDS011;6988;52.614;13.500;2022-12-10T01:02:25;25.70;;;19.30;;
13834;SDS011;6988;52.614;13.500;2022-12-10T01:07:17;26.70;;;19.10;;
13834;SDS011;6988;52.614;13.500;2022-12-10T01:12:09;25.63;;;18.87;;
13834;SDS011;6988;52.614;13.500;2022-12-10T01:17:02;26.30;;;19.47;;
13834;SDS011;6988;52.614;13.500;2022-12-10T01:21:57;26.00;;;19.10;;
13834;SDS011;6988;52.614;13.500;2022-12-10T01:26:49;27.03;;;19.80;;
13834;SDS011;6988;52.614;13.500;2022-12-10T01:31:42;27.27;;;20.20;;
13834;SDS011;6988;52.614;13.500;2022-12-10T01:36:34;27.93;;;20.30;;
13834;SDS011;6988;52.614;13.500;2022-12-10T01:41:32;27.73;;;20.23;;
13834;SDS011;6988;52.614;13.500;2022-12-10T01:46:27;28.37;;;21.00;;
13834;SDS011;6988;52.614;13.500;2022-12-10T01:51:21;30.33;;;22.57;;
13834;SDS011;6988;52.614;13.500;2022-12-10T01:56:17;32.60;;;22.73;;
13834;SDS011;6988;52.614;13.500;2022-12-10T02:01:13;33.53;;;23.00;;
13834;SDS011;6988;52.614;13.500;2022-12-10T02:06:25;31.07;;;22.43;;
13834;SDS011;6988;52.614;13.500;2022-12-10T02:11:36;32.50;;;23.20;;
13834;SDS011;6988;52.614;13.500;2022-12-10T02:16:40;31.73;;;22.20;;
13834;SDS011;6988;52.614;13.500;2022-12-10T02:21:40;31.83;;;22.83;;
13834;SDS011;6988;52.614;13.500;2022-12-10T02:26:40;32.30;;;22.70;;
13834;SDS011;6988;52.614;13.500;2022-12-10T02:31:44;33.43;;;22.37;;
13834;SDS011;6988;52.614;13.500;2022-12-10T02:36:42;32.90;;;22.30;;
13834;SDS011;6988;52.614;13.500;2022-12-10T02:41:40;35.03;;;22.10;;
13834;SDS011;6988;52.614;13.500;2022-12-10T02:46:42;31.13;;;22.70;;
13834;SDS011;6988;52.614;13.500;2022-12-10T02:51:40;33.07;;;23.77;;
13834;SDS011;6988;52.614;13.500;2022-12-10T02:56:33;31.27;;;22.47;;
13834;SDS011;6988;52.614;13.500;2022-12-10T03:01:34;33.93;;;23.40;;
13834;SDS011;6988;52.614;13.500;2022-12-10T03:06:45;33.47;;;24.50;;
13834;SDS011;6988;52.614;13.500;2022-12-10T03:11:43;36.07;;;25.00;;
13834;SDS011;6988;52.614;13.500;2022-12-10T03:16:41;33.40;;;23.83;;
13834;SDS011;6988;52.614;13.500;2022-12-10T03:21:41;32.87;;;23.30;;
13834;SDS011;6988;52.614;13.500;2022-12-10T03:26:38;33.87;;;23.60;;
13834;SDS011;6988;52.614;13.500;2022-12-10T03:31:32;31.17;;;22.17;;
13834;SDS011;6988;52.614;13.500;2022-12-10T03:36:26;35.53;;;24.37;;
13834;SDS011;6988;52.614;13.500;2022-12-10T03:41:22;32.40;;;23.57;;
13834;SDS011;6988;52.614;13.500;2022-12-10T03:46:14;33.67;;;23.53;;
13834;SDS011;6988;52.614;13.500;2022-12-10T03:51:06;31.60;;;21.93;;
13834;SDS011;6988;52.614;13.500;2022-12-10T03:55:59;36.23;;;24.13;;
13834;SDS011;6988;52.614;13.500;2022-12-10T04:00:53;35.43;;;24.10;;
13834;SDS011;6988;52.614;13.500;2022-12-10T04:05:44;32.17;;;22.83;;
13834;SDS011;6988;52.614;13.500;2022-12-10T04:10:36;31.20;;;22.93;;
13834;SDS011;6988;52.614;13.500;2022-12-10T04:15:29;33.40;;;24.00;;
13834;SDS011;6988;52.614;13.500;2022-12-10T04:20:40;33.70;;;24.00;;
13834;SDS011;6988;52.614;13.500;2022-12-10T04:25:49;30.87;;;22.83;;
13834;SDS011;6988;52.614;13.500;2022-12-10T04:30:59;31.43;;;23.50;;
13834;SDS011;6988;52.614;13.500;2022-12-10T04:35:52;32.83;;;23.57;;
13834;SDS011;6988;52.614;13.500;2022-12-10T04:40:44;32.23;;;23.43;;
13834;SDS011;6988;52.614;13.500;2022-12-10T04:45:36;32.67;;;23.17;;
13834;SDS011;6988;52.614;13.500;2022-12-10T04:50:29;32.23;;;23.47;;
13834;SDS011;6988;52.614;13.500;2022-12-10T04:55:23;28.57;;;21.03;;
13834;SDS011;6988;52.614;13.500;2022-12-10T05:00:15;27.83;;;21.90;;
13834;SDS011;6988;52.614;13.500;2022-12-10T05:05:07;26.80;;;20.27;;
13834;SDS011;6988;52.614;13.500;2022-12-10T05:09:59;26.87;;;20.67;;
13834;SDS011;6988;52.614;13.500;2022-12-10T05:14:54;24.00;;;19.23;;
13834;SDS011;6988;52.614;13.500;2022-12-10T05:19:46;24.20;;;18.93;;
13834;SDS011;6988;52.614;13.500;2022-12-10T05:24:37;23.23;;;17.33;;
13834;SDS011;6988;52.614;13.500;2022-12-10T05:29:29;24.47;;;19.23;;
13834;SDS011;6988;52.614;13.500;2022-12-10T05:34:24;21.33;;;17.17;;
13834;SDS011;6988;52.614;13.500;2022-12-10T05:39:17;23.00;;;18.47;;
13834;SDS011;6988;52.614;13.500;2022-12-10T05:44:09;21.13;;;17.37;;
13834;SDS011;6988;52.614;13.500;2022-12-10T05:49:02;20.63;;;16.67;;
13834;SDS011;6988;52.614;13.500;2022-12-10T05:53:58;22.80;;;18.10;;
13834;SDS011;6988;52.614;13.500;2022-12-10T05:58:54;19.63;;;16.67;;
13834;SDS011;6988;52.614;13.500;2022-12-10T06:03:49;20.00;;;17.27;;
13834;SDS011;6988;52.614;13.500;2022-12-10T06:08:42;21.57;;;17.53;;
13834;SDS011;6988;52.614;13.500;2022-12-10T06:13:36;20.83;;;16.50;;
13834;SDS011;6988;52.614;13.500;2022-12-10T06:18:29;20.13;;;16.67;;
13834;SDS011;6988;52.614;13.500;2022-12-10T06:23:21;18.07;;;15.80;;
13834;SDS011;6988;52.614;13.500;2022-12-10T06:28:13;17.83;;;15.17;;
13834;SDS011;6988;52.614;13.500;2022-12-10T06:33:06;18.80;;;15.90;;
13834;SDS011;6988;52.614;13.500;2022-12-10T06:37:58;18.73;;;15.40;;
13834;SDS011;6988;52.614;13.500;2022-12-10T06:42:50;18.27;;;15.70;;
13834;SDS011;6988;52.614;13.500;2022-12-10T06:47:43;18.60;;;15.43;;
13834;SDS011;6988;52.614;13.500;2022-12-10T06:52:36;17.33;;;14.90;;
13834;SDS011;6988;52.614;13.500;2022-12-10T06:57:28;20.13;;;15.17;;
13834;SDS011;6988;52.614;13.500;2022-12-10T07:02:20;17.47;;;15.57;;
13834;SDS011;6988;52.614;13.500;2022-12-10T07:07:12;18.73;;;15.27;;
13834;SDS011;6988;52.614;13.500;2022-12-10T07:12:06;17.83;;;15.57;;
13834;SDS011;6988;52.614;13.500;2022-12-10T07:16:57;17.97;;;15.20;;
13834;SDS011;6988;52.614;13.500;2022-12-10T07:21:52;17.70;;;15.60;;
13834;SDS011;6988;52.614;13.500;2022-12-10T07:26:44;17.83;;;15.27;;
13834;SDS011;6988;52.614;13.500;2022-12-10T07:31:39;18.80;;;16.77;;
13834;SDS011;6988;52.614;13.500;2022-12-10T07:36:31;18.10;;;15.63;;
13834;SDS011;6988;52.614;13.500;2022-12-10T07:41:23;19.07;;;16.97;;
13834;SDS011;6988;52.614;13.500;2022-12-10T07:46:17;18.57;;;16.57;;
13834;SDS011;6988;52.614;13.500;2022-12-10T07:51:13;20.10;;;17.40;;
13834;SDS011;6988;52.614;13.500;2022-12-10T07:56:07;21.63;;;18.37;;
13834;SDS011;6988;52.614;13.500;2022-12-10T08:01:05;19.53;;;17.43;;
13834;SDS011;6988;52.614;13.500;2022-12-10T08:06:01;20.37;;;17.07;;
13834;SDS011;6988;52.614;13.500;2022-12-10T08:10:55;21.50;;;17.23;;
13834;SDS011;6988;52.614;13.500;2022-12-10T08:15:51;19.47;;;16.70;;
13834;SDS011;6988;52.614;13.500;2022-12-10T08:20:43;21.27;;;17.70;;
13834;SDS011;6988;52.614;13.500;2022-12-10T08:25:35;20.20;;;17.63;;
13834;SDS011;6988;52.614;13.500;2022-12-10T08:30:28;20.33;;;17.37;;
13834;SDS011;6988;52.614;13.500;2022-12-10T08:35:21;19.47;;;17.20;;
13834;SDS011;6988;52.614;13.500;2022-12-10T08:40:13;18.87;;;16.63;;
13834;SDS011;6988;52.614;13.500;2022-12-10T08:45:06;21.30;;;18.13;;
13834;SDS011;6988;52.614;13.500;2022-12-10T08:50:00;22.93;;;18.33;;
13834;SDS011;6988;52.614;13.500;2022-12-10T08:54:53;20.83;;;17.63;;
13834;SDS011;6988;52.614;13.500;2022-12-10T08:59:44;20.57;;;17.97;;
13834;SDS011;6988;52.614;13.500;2022-12-10T09:04:36;21.43;;;17.60;;
13834;SDS011;6988;52.614;13.500;2022-12-10T09:09:33;20.60;;;17.17;;
13834;SDS011;6988;52.614;13.500;2022-12-10T09:14:25;20.30;;;17.43;;
13834;SDS011;6988;52.614;13.500;2022-12-10T09:19:17;21.70;;;17.30;;
13834;SDS011;6988;52.614;13.500;2022-12-10T09:24:09;21.73;;;17.67;;
13834;SDS011;6988;52.614;13.500;2022-12-10T09:29:02;22.03;;;17.70;;
13834;SDS011;6988;52.614;13.500;2022-12-10T09:33:55;20.77;;;18.10;;
13834;SDS011;6988;52.614;13.500;2022-12-10T09:38:48;20.70;;;17.20;;
13834;SDS011;6988;52.614;13.500;2022-12-10T09:43:44;19.80;;;16.80;;
13834;SDS011;6988;52.614;13.500;2022-12-10T09:48:50;21.10;;;18.03;;
13834;SDS011;6988;52.614;13.500;2022-12-10T09:53:55;20.20;;;17.03;;
13834;SDS011;6988;52.614;13.500;2022-12-10T09:58:49;20.27;;;16.60;;
13834;SDS011;6988;52.614;13.500;2022-12-10T10:03:41;21.57;;;18.73;;
13834;SDS011;6988;52.614;13.500;2022-12-10T10:08:36;21.30;;;18.00;;
13834;SDS011;6988;52.614;13.500;2022-12-10T10:13:34;19.47;;;17.40;;
13834;SDS011;6988;52.614;13.500;2022-12-10T10:18:29;21.07;;;17.47;;
13834;SDS011;6988;52.614;13.500;2022-12-10T10:23:29;22.50;;;18.43;;
13834;SDS011;6988;52.614;13.500;2022-12-10T10:28:22;20.80;;;17.97;;
13834;SDS011;6988;52.614;13.500;2022-12-10T10:33:14;22.70;;;17.97;;
13834;SDS011;6988;52.614;13.500;2022-12-10T10:38:08;21.57;;;18.03;;
13834;SDS011;6988;52.614;13.500;2022-12-10T10:43:12;20.80;;;17.67;;
13834;SDS011;6988;52.614;13.500;2022-12-10T10:48:13;20.80;;;17.80;;
13834;SDS011;6988;52.614;13.500;2022-12-10T10:53:19;20.57;;;17.77;;
13834;SDS011;6988;52.614;13.500;2022-12-10T10:58:22;21.53;;;18.40;;
13834;SDS011;6988;52.614;13.500;2022-12-10T11:03:17;22.17;;;18.30;;
13834;SDS011;6988;52.614;13.500;2022-12-10T11:08:13;21.40;;;16.93;;
13834;SDS011;6988;52.614;13.500;2022-12-10T11:13:18;19.90;;;16.37;;
13834;SDS011;6988;52.614;13.500;2022-12-10T11:18:23;20.83;;;16.93;;
13834;SDS011;6988;52.614;13.500;2022-12-10T11:23:20;19.47;;;15.97;;
13834;SDS011;6988;52.614;13.500;2022-12-10T11:28:16;19.77;;;16.80;;
13834;SDS011;6988;52.614;13.500;2022-12-10T11:33:31;19.37;;;16.03;;
13834;SDS011;6988;52.614;13.500;2022-12-10T11:38:37;24.43;;;18.97;;
13834;SDS011;6988;52.614;13.500;2022-12-10T11:43:43;24.50;;;19.67;;
13834;SDS011;6988;52.614;13.500;2022-12-10T11:48:59;19.97;;;16.47;;
13834;SDS011;6988;52.614;13.500;2022-12-10T11:54:12;19.63;;;17.10;;
13834;SDS011;6988;52.614;13.500;2022-12-10T11:59:21;17.07;;;14.50;;
13834;SDS011;6988;52.614;13.500;2022-12-10T12:04:26;16.63;;;14.60;;
13834;SDS011;6988;52.614;13.500;2022-12-10T12:09:35;16.60;;;14.73;;
13834;SDS011;6988;52.614;13.500;2022-12-10T12:14:43;16.90;;;14.70;;
13834;SDS011;6988;52.614;13.500;2022-12-10T12:19:46;19.27;;;15.57;;
13834;SDS011;6988;52.614;13.500;2022-12-10T12:24:43;19.87;;;15.43;;
13834;SDS011;6988;52.614;13.500;2022-12-10T12:29:40;17.43;;;14.37;;
13834;SDS011;6988;52.614;13.500;2022-12-10T12:34:43;19.23;;;14.53;;
13834;SDS011;6988;52.614;13.500;2022-12-10T12:39:46;23.97;;;17.50;;
13834;SDS011;6988;52.614;13.500;2022-12-10T12:44:52;20.80;;;15.00;;
13834;SDS011;6988;52.614;13.500;2022-12-10T12:49:55;18.40;;;14.80;;
13834;SDS011;6988;52.614;13.500;2022-12-10T12:54:50;20.57;;;15.30;;
13834;SDS011;6988;52.614;13.500;2022-12-10T12:59:50;18.70;;;14.43;;
13834;SDS011;6988;52.614;13.500;2022-12-10T13:04:53;21.70;;;15.93;;
13834;SDS011;6988;52.614;13.500;2022-12-10T13:09:47;22.43;;;16.17;;
13834;SDS011;6988;52.614;13.500;2022-12-10T13:14:54;20.47;;;15.97;;
13834;SDS011;6988;52.614;13.500;2022-12-10T13:25:39;23.97;;;16.93;;
13834;SDS011;6988;52.614;13.500;2022-12-10T13:30:47;22.17;;;15.27;;
13834;SDS011;6988;52.614;13.500;2022-12-10T13:36:33;22.70;;;16.07;;
13834;SDS011;6988;52.614;13.500;2022-12-10T13:41:28;23.00;;;16.60;;
13834;SDS011;6988;52.614;13.500;2022-12-10T13:46:55;22.13;;;16.97;;
13834;SDS011;6988;52.614;13.500;2022-12-10T13:57:15;32.63;;;19.93;;
13834;SDS011;6988;52.614;13.500;2022-12-10T14:08:04;45.20;;;31.43;;
13834;SDS011;6988;52.614;13.500;2022-12-10T14:13:02;39.37;;;27.17;;
13834;SDS011;6988;52.614;13.500;2022-12-10T14:17:58;33.17;;;23.13;;
13834;SDS011;6988;52.614;13.500;2022-12-10T14:22:57;38.73;;;25.40;;
13834;SDS011;6988;52.614;13.500;2022-12-10T14:28:12;29.43;;;20.17;;
13834;SDS011;6988;52.614;13.500;2022-12-10T14:33:07;28.03;;;19.47;;
13834;SDS011;6988;52.614;13.500;2022-12-10T14:38:12;30.30;;;19.37;;
13834;SDS011;6988;52.614;13.500;2022-12-10T14:43:13;28.37;;;19.43;;
13834;SDS011;6988;52.614;13.500;2022-12-10T14:48:09;31.87;;;21.10;;
13834;SDS011;6988;52.614;13.500;2022-12-10T14:53:10;36.03;;;21.10;;
13834;SDS011;6988;52.614;13.500;2022-12-10T14:58:09;39.17;;;22.17;;
13834;SDS011;6988;52.614;13.500;2022-12-10T15:03:11;38.60;;;22.70;;
13834;SDS011;6988;52.614;13.500;2022-12-10T15:08:18;37.00;;;20.50;;
13834;SDS011;6988;52.614;13.500;2022-12-10T15:13:16;37.80;;;22.40;;
13834;SDS011;6988;52.614;13.500;2022-12-10T15:18:15;39.17;;;21.20;;
13834;SDS011;6988;52.614;13.500;2022-12-10T15:23:15;40.03;;;21.27;;
13834;SDS011;6988;52.614;13.500;2022-12-10T15:28:22;48.40;;;24.90;;
13834;SDS011;6988;52.614;13.500;2022-12-10T15:33:23;45.70;;;23.80;;
13834;SDS011;6988;52.614;13.500;2022-12-10T15:38:22;46.77;;;22.63;;
13834;SDS011;6988;52.614;13.500;2022-12-10T15:43:23;49.20;;;23.20;;
13834;SDS011;6988;52.614;13.500;2022-12-10T15:48:19;44.53;;;23.53;;
13834;SDS011;6988;52.614;13.500;2022-12-10T15:53:14;46.20;;;23.03;;
13834;SDS011;6988;52.614;13.500;2022-12-10T15:58:16;45.40;;;22.97;;
13834;SDS011;6988;52.614;13.500;2022-12-10T16:03:10;52.73;;;24.40;;
13834;SDS011;6988;52.614;13.500;2022-12-10T16:08:06;50.83;;;23.30;;
13834;SDS011;6988;52.614;13.500;2022-12-10T16:13:05;53.67;;;23.80;;
13834;SDS011;6988;52.614;13.500;2022-12-10T16:18:07;64.47;;;27.90;;
13834;SDS011;6988;52.614;13.500;2022-12-10T16:23:01;53.67;;;24.30;;
13834;SDS011;6988;52.614;13.500;2022-12-10T16:27:55;59.97;;;28.77;;
13834;SDS011;6988;52.614;13.500;2022-12-10T16:32:48;62.03;;;25.50;;
13834;SDS011;6988;52.614;13.500;2022-12-10T16:37:43;62.87;;;24.90;;
13834;SDS011;6988;52.614;13.500;2022-12-10T16:42:36;54.00;;;24.47;;
13834;SDS011;6988;52.614;13.500;2022-12-10T16:47:28;53.83;;;23.40;;
13834;SDS011;6988;52.614;13.500;2022-12-10T16:52:20;49.70;;;23.73;;
13834;SDS011;6988;52.614;13.500;2022-12-10T16:57:13;51.07;;;22.93;;
13834;SDS011;6988;52.614;13.500;2022-12-10T17:02:09;54.33;;;23.87;;
13834;SDS011;6988;52.614;13.500;2022-12-10T17:07:05;62.43;;;25.37;;
13834;SDS011;6988;52.614;13.500;2022-12-10T17:11:57;68.47;;;31.97;;
13834;SDS011;6988;52.614;13.500;2022-12-10T17:16:51;69.53;;;31.83;;
13834;SDS011;6988;52.614;13.500;2022-12-10T17:21:47;77.30;;;35.87;;
13834;SDS011;6988;52.614;13.500;2022-12-10T17:26:40;53.57;;;25.60;;
13834;SDS011;6988;52.614;13.500;2022-12-10T17:31:36;51.73;;;25.87;;
13834;SDS011;6988;52.614;13.500;2022-12-10T17:36:30;48.53;;;24.30;;
13834;SDS011;6988;52.614;13.500;2022-12-10T17:41:22;50.73;;;23.53;;
13834;SDS011;6988;52.614;13.500;2022-12-10T17:46:15;50.07;;;23.07;;
13834;SDS011;6988;52.614;13.500;2022-12-10T17:51:12;56.57;;;24.00;;
13834;SDS011;6988;52.614;13.500;2022-12-10T17:56:09;49.13;;;23.57;;
13834;SDS011;6988;52.614;13.500;2022-12-10T18:01:06;50.43;;;23.97;;
13834;SDS011;6988;52.614;13.500;2022-12-10T18:05:59;56.37;;;26.17;;
13834;SDS011;6988;52.614;13.500;2022-12-10T18:10:51;56.87;;;27.10;;
13834;SDS011;6988;52.614;13.500;2022-12-10T18:15:44;54.43;;;28.03;;
13834;SDS011;6988;52.614;13.500;2022-12-10T18:20:38;58.43;;;28.57;;
13834;SDS011;6988;52.614;13.500;2022-12-10T18:25:32;62.13;;;30.73;;
13834;SDS011;6988;52.614;13.500;2022-12-10T18:30:24;47.07;;;25.07;;
13834;SDS011;6988;52.614;13.500;2022-12-10T18:35:18;58.80;;;30.73;;
13834;SDS011;6988;52.614;13.500;2022-12-10T18:40:12;58.90;;;29.30;;
13834;SDS011;6988;52.614;13.500;2022-12-10T18:45:07;48.63;;;24.73;;
13834;SDS011;6988;52.614;13.500;2022-12-10T18:50:00;47.37;;;24.37;;
13834;SDS011;6988;52.614;13.500;2022-12-10T18:54:54;56.23;;;28.70;;
13834;SDS011;6988;52.614;13.500;2022-12-10T18:59:46;47.00;;;27.53;;
13834;SDS011;6988;52.614;13.500;2022-12-10T19:04:38;47.97;;;26.13;;
13834;SDS011;6988;52.614;13.500;2022-12-10T19:09:32;43.27;;;23.70;;
13834;SDS011;6988;52.614;13.500;2022-12-10T19:14:28;41.63;;;23.50;;
13834;SDS011;6988;52.614;13.500;2022-12-10T19:19:20;41.37;;;24.70;;
13834;SDS011;6988;52.614;13.500;2022-12-10T19:24:11;44.97;;;25.93;;
13834;SDS011;6988;52.614;13.500;2022-12-10T19:29:08;43.83;;;26.00;;
13834;SDS011;6988;52.614;13.500;2022-12-10T19:34:07;45.20;;;25.20;;
13834;SDS011;6988;52.614;13.500;2022-12-10T19:38:59;46.93;;;23.30;;
13834;SDS011;6988;52.614;13.500;2022-12-10T19:43:51;41.63;;;22.90;;
13834;SDS011;6988;52.614;13.500;2022-12-10T19:48:44;40.83;;;23.17;;
13834;SDS011;6988;52.614;13.500;2022-12-10T19:53:38;42.43;;;25.77;;
13834;SDS011;6988;52.614;13.500;2022-12-10T19:58:32;41.53;;;24.40;;
13834;SDS011;6988;52.614;13.500;2022-12-10T20:03:24;36.00;;;22.73;;
13834;SDS011;6988;52.614;13.500;2022-12-10T20:08:16;41.63;;;25.37;;
13834;SDS011;6988;52.614;13.500;2022-12-10T20:13:10;44.00;;;25.83;;
13834;SDS011;6988;52.614;13.500;2022-12-10T20:18:02;40.07;;;25.13;;
13834;SDS011;6988;52.614;13.500;2022-12-10T20:22:55;48.20;;;26.87;;
13834;SDS011;6988;52.614;13.500;2022-12-10T20:27:47;43.53;;;24.87;;
13834;SDS011;6988;52.614;13.500;2022-12-10T20:32:43;49.80;;;26.73;;
13834;SDS011;6988;52.614;13.500;2022-12-10T20:37:37;40.83;;;23.23;;
13834;SDS011;6988;52.614;13.500;2022-12-10T20:42:29;44.37;;;24.13;;
13834;SDS011;6988;52.614;13.500;2022-12-10T20:47:21;40.57;;;24.93;;
13834;SDS011;6988;52.614;13.500;2022-12-10T20:52:15;43.40;;;25.10;;
13834;SDS011;6988;52.614;13.500;2022-12-10T20:57:09;36.00;;;21.53;;
13834;SDS011;6988;52.614;13.500;2022-12-10T21:02:02;35.70;;;21.80;;
13834;SDS011;6988;52.614;13.500;2022-12-10T21:06:54;38.93;;;23.57;;
13834;SDS011;6988;52.614;13.500;2022-12-10T21:11:48;34.30;;;21.50;;
13834;SDS011;6988;52.614;13.500;2022-12-10T21:16:40;35.20;;;20.93;;
13834;SDS011;6988;52.614;13.500;2022-12-10T21:21:32;36.00;;;21.87;;
13834;SDS011;6988;52.614;13.500;2022-12-10T21:26:24;35.63;;;22.17;;
13834;SDS011;6988;52.614;13.500;2022-12-10T21:31:21;35.23;;;22.47;;
13834;SDS011;6988;52.614;13.500;2022-12-10T21:36:15;62.73;;;37.63;;
13834;SDS011;6988;52.614;13.500;2022-12-10T21:41:12;40.43;;;23.57;;
13834;SDS011;6988;52.614;13.500;2022-12-10T21:46:28;42.27;;;23.80;;
13834;SDS011;6988;52.614;13.500;2022-12-10T21:51:21;39.23;;;23.37;;
13834;SDS011;6988;52.614;13.500;2022-12-10T21:56:12;37.30;;;22.53;;
13834;SDS011;6988;52.614;13.500;2022-12-10T22:01:05;35.17;;;22.13;;
13834;SDS011;6988;52.614;13.500;2022-12-10T22:06:01;34.00;;;21.23;;
13834;SDS011;6988;52.614;13.500;2022-12-10T22:10:53;34.93;;;21.80;;
13834;SDS011;6988;52.614;13.500;2022-12-10T22:15:45;32.03;;;21.43;;
13834;SDS011;6988;52.614;13.500;2022-12-10T22:20:37;31.50;;;21.07;;
13834;SDS011;6988;52.614;13.500;2022-12-10T22:25:32;31.77;;;20.97;;
13834;SDS011;6988;52.614;13.500;2022-12-10T22:30:24;33.80;;;20.20;;
13834;SDS011;6988;52.614;13.500;2022-12-10T22:35:17;32.93;;;20.37;;
13834;SDS011;6988;52.614;13.500;2022-12-10T22:40:10;32.83;;;20.70;;
13834;SDS011;6988;52.614;13.500;2022-12-10T22:45:06;32.53;;;21.73;;
13834;SDS011;6988;52.614;13.500;2022-12-10T23:05:06;33.97;;;23.17;;
13834;SDS011;6988;52.614;13.500;2022-12-10T23:09:59;33.13;;;23.43;;
13834;SDS011;6988;52.614;13.500;2022-12-10T23:14:51;35.17;;;23.67;;
13834;SDS011;6988;52.614;13.500;2022-12-10T23:19:43;35.00;;;23.30;;
13834;SDS011;6988;52.614;13.500;2022-12-10T23:24:36;30.33;;;21.53;;
13834;SDS011;6988;52.614;13.500;2022-12-10T23:29:28;32.30;;;19.50;;
13834;SDS011;6988;52.614;13.500;2022-12-10T23:34:20;29.57;;;19.97;;
13834;SDS011;6988;52.614;13.500;2022-12-10T23:39:12;28.47;;;20.70;;
13834;SDS011;6988;52.614;13.500;2022-12-10T23:44:06;27.00;;;19.33;;
13834;SDS011;6988;52.614;13.500;2022-12-10T23:48:59;28.23;;;19.47;;
13834;SDS011;6988;52.614;13.500;2022-12-10T23:53:51;28.40;;;18.87;;
13834;SDS011;6988;52.614;13.500;2022-12-10T23:58:43;30.07;;;18.73;;
